createdAt,value
2023-01-25T00:00:44.110Z,101124.66
2023-01-25T00:03:10.996Z,101145.88
2023-01-25T00:05:37.905Z,101151.53
2023-01-25T00:08:04.921Z,101150.56
2023-01-25T00:10:31.765Z,101010.44
2023-01-25T00:12:58.491Z,101162.97
2023-01-25T00:15:25.301Z,101110.00
2023-01-25T00:17:52.060Z,101155.34
2023-01-25T00:20:19.073Z,101157.50
2023-01-25T00:22:46.136Z,101160.56
2023-01-25T00:25:12.915Z,101028.69
2023-01-25T00:27:40.207Z,101131.22
2023-01-25T00:30:07.648Z,101123.34
2023-01-25T00:33:02.664Z,101154.72
2023-01-25T00:35:32.664Z,101150.50
2023-01-25T00:38:02.978Z,101134.41
2023-01-25T00:40:29.826Z,101140.09
2023-01-25T00:43:00.825Z,101125.59
2023-01-25T00:45:27.808Z,101118.41
2023-01-25T00:47:56.385Z,101093.22
2023-01-25T00:50:23.387Z,101143.50
2023-01-25T00:52:50.133Z,101083.88
2023-01-25T00:55:17.093Z,101010.75
2023-01-25T00:57:43.862Z,100976.63
2023-01-25T01:00:11.374Z,100534.47
2023-01-25T01:02:38.489Z,101123.97
2023-01-25T01:05:06.172Z,101118.88
2023-01-25T01:07:33.222Z,100967.19
2023-01-25T01:10:00.359Z,101114.53
2023-01-25T01:12:27.217Z,101122.41
2023-01-25T01:14:54.004Z,101043.25
2023-01-25T01:17:20.988Z,101095.81
2023-01-25T01:19:47.853Z,101042.63
2023-01-25T01:22:14.784Z,100991.94
2023-01-25T01:24:42.364Z,100939.13
2023-01-25T01:27:09.191Z,101092.31
2023-01-25T01:29:35.959Z,101100.88
2023-01-25T01:32:02.880Z,101032.00
2023-01-25T01:34:29.885Z,101099.66
2023-01-25T01:36:56.749Z,101104.81
2023-01-25T01:39:24.171Z,101088.06
2023-01-25T01:41:51.067Z,100861.84
2023-01-25T01:44:22.729Z,101086.88
2023-01-25T01:46:58.411Z,101127.00
2023-01-25T01:49:31.837Z,101091.53
2023-01-25T01:52:12.212Z,100748.38
2023-01-25T01:54:47.169Z,101091.03
2023-01-25T01:57:22.212Z,101003.72
2023-01-25T01:59:54.351Z,101021.03
2023-01-25T02:02:24.033Z,101088.53
2023-01-25T02:04:51.894Z,101094.41
2023-01-25T02:07:25.586Z,101161.50
2023-01-25T02:09:52.362Z,100885.09
2023-01-25T02:12:22.506Z,101085.94
2023-01-25T02:14:51.867Z,100990.91
2023-01-25T02:17:27.610Z,101115.63
2023-01-25T02:20:01.265Z,101073.19
2023-01-25T02:22:43.492Z,100922.59
2023-01-25T02:25:12.493Z,101080.16
2023-01-25T02:27:54.568Z,101086.78
2023-01-25T02:30:22.631Z,101066.09
2023-01-25T02:32:51.235Z,101089.34
2023-01-25T02:35:24.651Z,100954.53
2023-01-25T02:37:52.219Z,101075.06
2023-01-25T02:40:19.233Z,101059.94
2023-01-25T02:42:47.138Z,101060.81
2023-01-25T02:45:19.574Z,101085.44
2023-01-25T02:47:46.467Z,101056.44
2023-01-25T02:50:15.126Z,101004.59
2023-01-25T02:52:42.732Z,101055.00
2023-01-25T02:55:10.100Z,100930.16
2023-01-25T02:57:38.945Z,100921.75
2023-01-25T03:00:07.585Z,101014.81
2023-01-25T03:02:34.710Z,101003.63
2023-01-25T03:05:01.660Z,101044.41
2023-01-25T03:07:28.704Z,100948.72
2023-01-25T03:09:55.838Z,101040.31
2023-01-25T03:12:23.284Z,101042.16
2023-01-25T03:14:50.192Z,101038.84
2023-01-25T03:17:18.789Z,100961.09
2023-01-25T03:19:46.083Z,101028.72
2023-01-25T03:22:13.162Z,100991.13
2023-01-25T03:24:40.558Z,100935.28
2023-01-25T03:27:10.623Z,100921.59
2023-01-25T03:29:47.051Z,100991.63
2023-01-25T03:32:18.264Z,100789.94
2023-01-25T03:34:45.163Z,100959.00
2023-01-25T03:37:11.981Z,101031.00
2023-01-25T03:39:40.694Z,100994.19
2023-01-25T03:42:08.214Z,101027.69
2023-01-25T03:44:35.122Z,101007.22
2023-01-25T03:47:02.488Z,100919.13
2023-01-25T03:49:30.092Z,100968.75
2023-01-25T03:51:58.105Z,101019.13
2023-01-25T03:54:33.373Z,101008.13
2023-01-25T03:57:00.848Z,100849.34
2023-01-25T03:59:28.778Z,100950.06
2023-01-25T04:01:55.948Z,100855.56
2023-01-25T04:04:23.024Z,100883.78
2023-01-25T04:06:50.436Z,101005.94
2023-01-25T04:09:18.032Z,101002.38
2023-01-25T04:11:51.016Z,100870.78
2023-01-25T04:14:25.475Z,100954.59
2023-01-25T04:17:05.414Z,100916.22
2023-01-25T04:19:42.485Z,100952.16
2023-01-25T04:22:13.500Z,100984.53
2023-01-25T04:24:43.623Z,100922.22
2023-01-25T04:27:10.558Z,100966.69
2023-01-25T04:29:50.081Z,100967.53
2023-01-25T04:32:20.053Z,100744.03
2023-01-25T04:34:46.976Z,100751.66
2023-01-25T04:37:17.642Z,100835.16
2023-01-25T04:39:51.830Z,100696.09
2023-01-25T04:42:19.575Z,100935.66
2023-01-25T04:44:49.846Z,100943.44
2023-01-25T04:47:16.995Z,100726.81
2023-01-25T04:49:43.820Z,100926.38
2023-01-25T04:52:11.233Z,100928.25
2023-01-25T04:54:38.071Z,100900.94
2023-01-25T04:57:05.528Z,100939.38
2023-01-25T04:59:32.629Z,100951.25
2023-01-25T05:01:59.431Z,100822.38
2023-01-25T05:04:27.846Z,100826.31
2023-01-25T05:06:54.860Z,100715.44
2023-01-25T05:09:21.867Z,100770.09
2023-01-25T05:11:48.793Z,100891.41
2023-01-25T05:14:21.841Z,100891.47
2023-01-25T05:16:50.310Z,100933.13
2023-01-25T05:19:17.657Z,100924.59
2023-01-25T05:21:59.348Z,100927.19
2023-01-25T05:24:41.812Z,100858.06
2023-01-25T05:27:13.634Z,100900.66
2023-01-25T05:30:07.630Z,100932.22
2023-01-25T05:32:43.409Z,100932.91
2023-01-25T05:35:10.686Z,100805.81
2023-01-25T05:37:38.842Z,100884.28
2023-01-25T05:40:09.370Z,100941.34
2023-01-25T05:42:38.599Z,100786.50
2023-01-25T05:45:11.483Z,100949.69
2023-01-25T05:47:39.648Z,100848.13
2023-01-25T05:50:08.793Z,100595.75
2023-01-25T05:52:50.652Z,100945.50
2023-01-25T05:55:17.871Z,100859.75
2023-01-25T05:57:44.697Z,100956.59
2023-01-25T06:00:12.095Z,100905.66
2023-01-25T06:02:42.104Z,100939.94
2023-01-25T06:05:14.072Z,100940.78
2023-01-25T06:07:41.122Z,100941.53
2023-01-25T06:10:08.885Z,100872.34
2023-01-25T06:12:36.945Z,100896.25
2023-01-25T06:15:03.979Z,100785.25
2023-01-25T06:17:30.826Z,100914.03
2023-01-25T06:20:16.409Z,100948.94
2023-01-25T06:23:18.639Z,100941.09
2023-01-25T06:25:45.466Z,100784.75
2023-01-25T06:28:12.260Z,100951.03
2023-01-25T06:30:39.064Z,100743.59
2023-01-25T06:33:05.891Z,100850.31
2023-01-25T06:35:33.741Z,100906.66
2023-01-25T06:38:01.242Z,100877.56
2023-01-25T06:40:28.602Z,100828.13
2023-01-25T06:42:55.487Z,100576.50
2023-01-25T06:45:22.354Z,100947.72
2023-01-25T06:47:50.414Z,100946.16
2023-01-25T06:50:17.318Z,100957.28
2023-01-25T06:52:51.865Z,100860.91
2023-01-25T06:55:18.800Z,100661.13
2023-01-25T06:57:45.622Z,100817.97
2023-01-25T07:00:13.019Z,100857.22
2023-01-25T07:02:39.927Z,100834.13
2023-01-25T07:05:07.780Z,100945.28
2023-01-25T07:07:34.801Z,100736.22
2023-01-25T07:10:02.230Z,100945.34
2023-01-25T07:12:30.331Z,100863.50
2023-01-25T07:14:57.351Z,100772.97
2023-01-25T07:17:24.170Z,100777.41
2023-01-25T07:19:50.945Z,100880.75
2023-01-25T07:22:18.046Z,100896.16
2023-01-25T07:24:50.051Z,100888.94
2023-01-25T07:27:20.743Z,100927.50
2023-01-25T07:29:47.669Z,100896.72
2023-01-25T07:32:14.605Z,100931.84
2023-01-25T07:34:41.459Z,100926.75
2023-01-25T07:37:09.339Z,100125.94
2023-01-25T07:39:36.553Z,100829.69
2023-01-25T07:42:03.518Z,100785.38
2023-01-25T07:44:32.240Z,100629.41
2023-01-25T07:47:09.273Z,100881.06
2023-01-25T07:49:36.425Z,100468.44
2023-01-25T07:52:03.576Z,100887.00
2023-01-25T07:54:30.326Z,100859.72
2023-01-25T07:56:57.877Z,100894.78
2023-01-25T07:59:25.119Z,100867.38
2023-01-25T08:01:51.981Z,100689.97
2023-01-25T08:04:18.987Z,100858.13
2023-01-25T08:06:45.703Z,100902.63
2023-01-25T08:09:19.765Z,100819.91
2023-01-25T08:11:47.362Z,100798.63
2023-01-25T08:14:14.163Z,100813.94
2023-01-25T08:16:41.199Z,100902.59
2023-01-25T08:19:11.064Z,100808.03
2023-01-25T08:21:37.991Z,100844.84
2023-01-25T08:24:07.114Z,100885.88
2023-01-25T08:26:36.267Z,100848.34
2023-01-25T08:29:03.729Z,100810.00
2023-01-25T08:31:33.274Z,100799.81
2023-01-25T08:34:00.660Z,100858.50
2023-01-25T08:36:28.304Z,100824.31
2023-01-25T08:39:00.241Z,100878.22
2023-01-25T08:41:29.098Z,100812.66
2023-01-25T08:43:56.294Z,100869.78
2023-01-25T08:46:25.194Z,100834.88
2023-01-25T08:48:55.969Z,100884.28
2023-01-25T08:51:24.381Z,100707.00
2023-01-25T08:53:51.385Z,100749.47
2023-01-25T08:56:19.003Z,100862.94
2023-01-25T08:58:48.234Z,100729.56
2023-01-25T09:01:21.779Z,100862.00
2023-01-25T09:03:50.739Z,100857.81
2023-01-25T09:06:19.866Z,100859.50
2023-01-25T09:08:47.278Z,100792.22
2023-01-25T09:11:20.269Z,100819.53
2023-01-25T09:13:48.852Z,100855.38
2023-01-25T09:16:22.777Z,100835.75
2023-01-25T09:18:50.950Z,100730.16
2023-01-25T09:21:18.530Z,100845.22
2023-01-25T09:24:05.520Z,100718.28
2023-01-25T09:26:34.706Z,100864.81
2023-01-25T09:29:01.606Z,100849.44
2023-01-25T09:31:29.518Z,100847.72
2023-01-25T09:33:59.974Z,100859.66
2023-01-25T09:36:26.824Z,100613.59
2023-01-25T09:38:55.722Z,100839.44
2023-01-25T09:41:41.570Z,100826.69
2023-01-25T09:44:17.754Z,100824.16
2023-01-25T09:46:49.098Z,100739.69
2023-01-25T09:49:18.841Z,100817.38
2023-01-25T09:52:07.203Z,100813.19
2023-01-25T09:54:47.071Z,100812.28
2023-01-25T09:57:42.344Z,100785.06
2023-01-25T10:00:17.944Z,100811.50
2023-01-25T10:02:51.926Z,100810.66
2023-01-25T10:05:23.061Z,100694.88
2023-01-25T10:07:54.935Z,100801.28
2023-01-25T10:10:30.058Z,100803.88
2023-01-25T10:12:56.944Z,100648.94
2023-01-25T10:15:32.919Z,100788.53
2023-01-25T10:18:17.163Z,100782.56
2023-01-25T10:20:50.015Z,100781.72
2023-01-25T10:23:25.646Z,100777.47
2023-01-25T10:26:00.652Z,100769.00
2023-01-25T10:28:36.574Z,100763.06
2023-01-25T10:31:44.366Z,100761.34
2023-01-25T10:34:17.762Z,100761.34
2023-01-25T10:36:49.404Z,100657.53
2023-01-25T10:39:17.855Z,100749.44
2023-01-25T10:41:50.622Z,100565.66
2023-01-25T10:44:28.220Z,100671.13
2023-01-25T10:47:04.230Z,100728.16
2023-01-25T10:49:46.349Z,100745.19
2023-01-25T10:52:16.498Z,100591.22
2023-01-25T10:54:43.880Z,100673.69
2023-01-25T10:57:17.252Z,100439.84
2023-01-25T10:59:52.200Z,100626.91
2023-01-25T11:02:37.258Z,100729.00
2023-01-25T11:05:19.089Z,100718.78
2023-01-25T11:07:46.909Z,100713.66
2023-01-25T11:10:37.803Z,100665.19
2023-01-25T11:13:13.529Z,100714.53
2023-01-25T11:15:41.813Z,100719.63
2023-01-25T11:18:20.312Z,100753.69
2023-01-25T11:20:47.592Z,100700.09
2023-01-25T11:23:26.433Z,100706.88
2023-01-25T11:25:53.480Z,100586.97
2023-01-25T11:28:23.181Z,100666.88
2023-01-25T11:30:52.680Z,100537.66
2023-01-25T11:33:21.770Z,100575.06
2023-01-25T11:35:58.679Z,100693.25
2023-01-25T11:38:25.782Z,100689.03
2023-01-25T11:41:13.287Z,100717.09
2023-01-25T11:43:46.163Z,100645.63
2023-01-25T11:46:26.064Z,100676.25
2023-01-25T11:49:09.933Z,100493.50
2023-01-25T11:52:15.558Z,100672.84
2023-01-25T11:54:45.537Z,100665.19
2023-01-25T11:57:36.885Z,100666.03
2023-01-25T12:00:16.834Z,100603.06
2023-01-25T12:03:05.175Z,100661.75
2023-01-25T12:05:56.824Z,100666.00
2023-01-25T12:08:41.211Z,100414.50
2023-01-25T12:11:13.925Z,100663.41
2023-01-25T12:14:05.647Z,100326.22
2023-01-25T12:16:47.655Z,100645.53
2023-01-25T12:19:34.824Z,100637.03
2023-01-25T12:22:07.733Z,100642.13
2023-01-25T12:24:59.959Z,100630.28
2023-01-25T12:27:44.961Z,100630.28
2023-01-25T12:30:15.766Z,100563.16
2023-01-25T12:32:59.508Z,100632.84
2023-01-25T12:35:43.634Z,100620.91
2023-01-25T12:38:26.149Z,100548.69
2023-01-25T12:40:58.407Z,100551.19
2023-01-25T12:43:33.058Z,100538.44
2023-01-25T12:46:05.155Z,100618.34
2023-01-25T12:48:37.499Z,100452.69
2023-01-25T12:51:04.850Z,100543.59
2023-01-25T12:53:41.033Z,100536.78
2023-01-25T12:56:23.561Z,100630.28
2023-01-25T12:58:56.643Z,100629.44
2023-01-25T13:01:35.886Z,100611.56
2023-01-25T13:04:02.977Z,100608.09
2023-01-25T13:06:53.108Z,100535.94
2023-01-25T13:10:02.158Z,100448.38
2023-01-25T13:12:29.243Z,100597.88
2023-01-25T13:14:56.303Z,100495.13
2023-01-25T13:17:38.207Z,100513.81
2023-01-25T13:20:38.888Z,100588.56
2023-01-25T13:23:34.596Z,100543.56
2023-01-25T13:26:32.321Z,100587.75
2023-01-25T13:29:00.414Z,100583.50
2023-01-25T13:31:52.030Z,100576.69
2023-01-25T13:34:39.322Z,100582.66
2023-01-25T13:37:26.016Z,100572.44
2023-01-25T13:40:06.507Z,100384.78
2023-01-25T13:42:36.379Z,100588.59
2023-01-25T13:45:15.250Z,100560.53
2023-01-25T13:47:44.012Z,100470.53
2023-01-25T13:50:23.577Z,100263.41
2023-01-25T13:52:56.552Z,100553.72
2023-01-25T13:55:23.686Z,100554.53
2023-01-25T13:57:51.724Z,100479.78
2023-01-25T14:00:19.362Z,100552.81
2023-01-25T14:02:54.708Z,100540.13
2023-01-25T14:05:24.843Z,100308.38
2023-01-25T14:07:54.536Z,100541.78
2023-01-25T14:10:27.790Z,100342.31
2023-01-25T14:13:00.463Z,100498.44
2023-01-25T14:15:32.228Z,100422.97
2023-01-25T14:18:05.067Z,100542.63
2023-01-25T14:20:32.320Z,100487.44
2023-01-25T14:22:59.326Z,100481.50
2023-01-25T14:25:26.417Z,100168.44
2023-01-25T14:28:00.379Z,100541.75
2023-01-25T14:30:30.677Z,100479.72
2023-01-25T14:33:00.890Z,100411.03
2023-01-25T14:35:55.212Z,100523.09
2023-01-25T14:38:37.954Z,100519.69
2023-01-25T14:41:28.223Z,100431.38
2023-01-25T14:43:58.258Z,100516.28
2023-01-25T14:46:28.344Z,100505.22
2023-01-25T14:49:07.527Z,100350.81
2023-01-25T14:51:37.929Z,100415.28
2023-01-25T14:54:13.722Z,100504.47
2023-01-25T14:56:47.188Z,100478.97
2023-01-25T14:59:35.720Z,100495.88
2023-01-25T15:02:40.846Z,100500.97
2023-01-25T15:05:21.485Z,100466.16
2023-01-25T15:07:48.375Z,100508.63
2023-01-25T15:10:20.573Z,100439.84
2023-01-25T15:13:18.191Z,100498.44
2023-01-25T15:15:54.392Z,100501.81
2023-01-25T15:18:40.186Z,100501.78
2023-01-25T15:21:11.848Z,100421.97
2023-01-25T15:23:41.197Z,100498.34
2023-01-25T15:26:18.799Z,100404.19
2023-01-25T15:28:46.003Z,100450.06
2023-01-25T15:31:22.269Z,100373.69
2023-01-25T15:33:49.442Z,100390.66
2023-01-25T15:36:17.708Z,100444.13
2023-01-25T15:38:45.439Z,100338.06
2023-01-25T15:41:13.848Z,100487.44
2023-01-25T15:43:41.425Z,100520.59
2023-01-25T15:46:15.574Z,100514.69
2023-01-25T15:48:44.510Z,100257.47
2023-01-25T15:51:12.916Z,100526.59
2023-01-25T15:53:39.931Z,100417.84
2023-01-25T15:56:13.704Z,100469.63
2023-01-25T15:58:42.983Z,100432.34
2023-01-25T16:01:10.312Z,100493.44
2023-01-25T16:03:41.457Z,100413.63
2023-01-25T16:06:29.080Z,100395.78
2023-01-25T16:08:56.126Z,100490.84
2023-01-25T16:11:23.102Z,100486.56
2023-01-25T16:13:50.043Z,100472.97
2023-01-25T16:16:22.984Z,100548.63
2023-01-25T16:18:50.124Z,100447.53
2023-01-25T16:21:17.316Z,100448.34
2023-01-25T16:23:44.395Z,100418.69
2023-01-25T16:26:23.091Z,100484.94
2023-01-25T16:28:50.272Z,100355.91
2023-01-25T16:31:31.134Z,100389.88
2023-01-25T16:33:59.525Z,100434.00
2023-01-25T16:36:26.613Z,100366.09
2023-01-25T16:38:53.601Z,100447.59
2023-01-25T16:41:20.620Z,100413.63
2023-01-25T16:43:49.006Z,100331.28
2023-01-25T16:46:21.897Z,100484.06
2023-01-25T16:48:51.132Z,100428.03
2023-01-25T16:51:21.479Z,100452.63
2023-01-25T16:53:49.694Z,100469.59
2023-01-25T16:56:23.036Z,100463.63
2023-01-25T16:58:53.777Z,100464.47
2023-01-25T17:01:22.769Z,100455.97
2023-01-25T17:03:50.881Z,100459.38
2023-01-25T17:06:21.476Z,100464.47
2023-01-25T17:08:49.629Z,100454.25
2023-01-25T17:11:22.159Z,100439.88
2023-01-25T17:13:50.762Z,100458.53
2023-01-25T17:16:22.923Z,100460.25
2023-01-25T17:19:01.691Z,100455.97
2023-01-25T17:21:29.174Z,100438.16
2023-01-25T17:23:58.323Z,100426.25
2023-01-25T17:26:26.725Z,100387.25
2023-01-25T17:28:55.899Z,100302.41
2023-01-25T17:31:28.286Z,100422.84
2023-01-25T17:33:56.220Z,100433.06
2023-01-25T17:36:23.658Z,100354.97
2023-01-25T17:38:50.849Z,100447.38
2023-01-25T17:41:17.742Z,100452.44
2023-01-25T17:43:44.750Z,100422.72
2023-01-25T17:46:26.075Z,100341.34
2023-01-25T17:48:54.787Z,100422.75
2023-01-25T17:51:24.998Z,100460.91
2023-01-25T17:53:52.768Z,100457.47
2023-01-25T17:56:19.893Z,100326.78
2023-01-25T17:58:47.029Z,100323.38
2023-01-25T18:01:17.165Z,100460.06
2023-01-25T18:03:45.298Z,100394.50
2023-01-25T18:06:16.760Z,100414.84
2023-01-25T18:08:48.821Z,100460.75
2023-01-25T18:11:21.370Z,100431.09
2023-01-25T18:13:51.003Z,100423.44
2023-01-25T18:16:21.820Z,100411.47
2023-01-25T18:18:50.521Z,100348.84
2023-01-25T18:21:24.041Z,100375.19
2023-01-25T18:24:04.586Z,100403.06
2023-01-25T18:26:36.804Z,100394.53
2023-01-25T18:29:45.514Z,100392.72
2023-01-25T18:32:13.710Z,100347.78
2023-01-25T18:34:40.648Z,100386.78
2023-01-25T18:37:18.833Z,100400.44
2023-01-25T18:39:52.952Z,100360.56
2023-01-25T18:42:21.469Z,100382.47
2023-01-25T18:44:48.598Z,100369.72
2023-01-25T18:47:20.153Z,100358.75
2023-01-25T18:49:49.313Z,100369.84
2023-01-25T18:52:17.614Z,100352.03
2023-01-25T18:54:45.064Z,100352.06
2023-01-25T18:57:13.336Z,100235.19
2023-01-25T18:59:41.087Z,100247.03
2023-01-25T19:02:10.116Z,100350.41
2023-01-25T19:04:36.967Z,100364.84
2023-01-25T19:07:04.759Z,100285.97
2023-01-25T19:09:31.903Z,100308.81
2023-01-25T19:11:58.882Z,100352.88
2023-01-25T19:14:26.040Z,100315.50
2023-01-25T19:16:53.170Z,100236.72
2023-01-25T19:19:20.891Z,100277.41
2023-01-25T19:21:48.070Z,100205.38
2023-01-25T19:24:18.712Z,100317.19
2023-01-25T19:26:47.293Z,100314.63
2023-01-25T19:29:15.778Z,100356.09
2023-01-25T19:31:42.579Z,100364.59
2023-01-25T19:34:09.398Z,100350.16
2023-01-25T19:36:40.576Z,100320.56
2023-01-25T19:39:10.540Z,100058.03
2023-01-25T19:41:38.882Z,100308.75
2023-01-25T19:44:07.210Z,100095.38
2023-01-25T19:46:35.801Z,100260.53
2023-01-25T19:49:05.540Z,100265.72
2023-01-25T19:51:36.862Z,100287.63
2023-01-25T19:54:07.281Z,100337.69
2023-01-25T19:56:38.987Z,100341.06
2023-01-25T19:59:08.711Z,100307.16
2023-01-25T20:01:36.647Z,100335.19
2023-01-25T20:04:05.960Z,100288.50
2023-01-25T20:06:33.040Z,100297.00
2023-01-25T20:08:59.744Z,100348.81
2023-01-25T20:11:29.231Z,100269.88
2023-01-25T20:13:59.207Z,100328.31
2023-01-25T20:16:27.334Z,100198.69
2023-01-25T20:18:56.263Z,100330.03
2023-01-25T20:21:24.241Z,100316.50
2023-01-25T20:23:55.003Z,100309.75
2023-01-25T20:26:25.064Z,100208.03
2023-01-25T20:28:53.666Z,100382.84
2023-01-25T20:31:35.484Z,100312.22
2023-01-25T20:34:05.507Z,100254.56
2023-01-25T20:36:34.916Z,100194.38
2023-01-25T20:39:02.435Z,100271.47
2023-01-25T20:41:29.240Z,100314.75
2023-01-25T20:44:01.953Z,100180.06
2023-01-25T20:46:29.714Z,100172.47
2023-01-25T20:48:56.516Z,100315.63
2023-01-25T20:51:23.953Z,100310.56
2023-01-25T20:53:51.379Z,100198.63
2023-01-25T20:56:19.146Z,100300.31
2023-01-25T20:58:50.387Z,100302.75
2023-01-25T21:01:17.344Z,100294.19
2023-01-25T21:03:44.250Z,100268.78
2023-01-25T21:06:12.093Z,100305.25
2023-01-25T21:08:39.290Z,100304.41
2023-01-25T21:11:06.532Z,100295.03
2023-01-25T21:13:33.815Z,100267.22
2023-01-25T21:16:04.267Z,100269.72
2023-01-25T21:18:36.964Z,100293.44
2023-01-25T21:21:08.062Z,100137.59
2023-01-25T21:23:36.389Z,100154.47
2023-01-25T21:26:05.654Z,100295.88
2023-01-25T21:28:33.899Z,100206.19
2023-01-25T21:31:17.806Z,100216.38
2023-01-25T21:33:45.207Z,100115.59
2023-01-25T21:36:16.003Z,100278.13
2023-01-25T21:38:47.918Z,100300.41
2023-01-25T21:41:17.657Z,99957.44
2023-01-25T21:44:02.933Z,100264.53
2023-01-25T21:46:29.751Z,100162.03
2023-01-25T21:49:20.157Z,100262.78
2023-01-25T21:51:52.329Z,100261.94
2023-01-25T21:54:21.556Z,99912.44
2023-01-25T21:56:49.679Z,100256.81
2023-01-25T21:59:16.393Z,100264.44
2023-01-25T22:01:43.814Z,100211.88
2023-01-25T22:04:11.618Z,100255.88
2023-01-25T22:06:38.922Z,100241.56
2023-01-25T22:09:06.575Z,100252.53
2023-01-25T22:11:34.112Z,100211.88
2023-01-25T22:14:01.080Z,100131.50
2023-01-25T22:16:29.362Z,100245.78
2023-01-25T22:18:56.686Z,100250.88
2023-01-25T22:21:28.645Z,100305.34
2023-01-25T22:23:55.481Z,100165.41
2023-01-25T22:26:27.254Z,100244.06
2023-01-25T22:28:58.732Z,100056.25
2023-01-25T22:31:30.611Z,100212.78
2023-01-25T22:33:59.150Z,100239.06
2023-01-25T22:36:27.809Z,100243.38
2023-01-25T22:38:57.900Z,100086.66
2023-01-25T22:41:27.830Z,100169.69
2023-01-25T22:43:54.953Z,100231.44
2023-01-25T22:46:24.000Z,100239.03
2023-01-25T22:48:51.329Z,100217.72
2023-01-25T22:51:27.238Z,100190.75
2023-01-25T22:53:55.355Z,100182.94
2023-01-25T22:56:25.705Z,100204.09
2023-01-25T22:58:52.508Z,100203.34
2023-01-25T23:01:27.911Z,100116.94
2023-01-25T23:03:54.630Z,100202.38
2023-01-25T23:06:24.455Z,100167.56
2023-01-25T23:08:54.150Z,100119.34
2023-01-25T23:11:22.757Z,100126.09
2023-01-25T23:14:08.781Z,99867.41
2023-01-25T23:16:35.857Z,100150.72
2023-01-25T23:19:04.314Z,100148.13
2023-01-25T23:21:31.513Z,100159.19
2023-01-25T23:24:02.801Z,100165.94
2023-01-25T23:26:37.859Z,100143.75
2023-01-25T23:29:11.950Z,100167.63
2023-01-25T23:31:39.155Z,100043.91
2023-01-25T23:34:07.078Z,99871.44
2023-01-25T23:36:38.875Z,99879.03
2023-01-25T23:39:05.897Z,100077.63
2023-01-25T23:41:32.766Z,100148.63
2023-01-25T23:44:00.872Z,100052.19
2023-01-25T23:46:30.593Z,100098.84
2023-01-25T23:48:57.375Z,100138.53
2023-01-25T23:51:24.277Z,100132.53
2023-01-25T23:53:53.421Z,100145.31
2023-01-25T23:56:21.830Z,100042.16
2023-01-25T23:58:49.006Z,100089.44
